sensor_id;sensor_type;location;lat;lon;timestamp;P1;durP1;ratioP1;P2;durP2;ratioP2
48951;SDS011;34758;42.148;24.744;2024-03-17T00:00:24;13.60;;;10.15;;
48951;SDS011;34758;42.148;24.744;2024-03-17T00:02:50;11.70;;;9.48;;
48951;SDS011;34758;42.148;24.744;2024-03-17T00:05:20;13.95;;;10.25;;
48951;SDS011;34758;42.148;24.744;2024-03-17T00:07:46;13.85;;;10.52;;
48951;SDS011;34758;42.148;24.744;2024-03-17T00:10:14;11.85;;;9.63;;
48951;SDS011;34758;42.148;24.744;2024-03-17T00:12:40;12.63;;;9.82;;
48951;SDS011;34758;42.148;24.744;2024-03-17T00:15:08;11.13;;;9.38;;
48951;SDS011;34758;42.148;24.744;2024-03-17T00:17:37;14.73;;;9.40;;
48951;SDS011;34758;42.148;24.744;2024-03-17T00:20:05;14.55;;;10.00;;
48951;SDS011;34758;42.148;24.744;2024-03-17T00:22:36;13.50;;;9.43;;
48951;SDS011;34758;42.148;24.744;2024-03-17T00:25:05;13.18;;;9.13;;
48951;SDS011;34758;42.148;24.744;2024-03-17T00:27:32;16.60;;;9.68;;
48951;SDS011;34758;42.148;24.744;2024-03-17T00:30:02;13.60;;;9.65;;
48951;SDS011;34758;42.148;24.744;2024-03-17T00:32:28;14.68;;;9.68;;
48951;SDS011;34758;42.148;24.744;2024-03-17T00:34:55;14.45;;;9.73;;
48951;SDS011;34758;42.148;24.744;2024-03-17T00:37:22;13.63;;;10.77;;
48951;SDS011;34758;42.148;24.744;2024-03-17T00:39:51;16.38;;;11.45;;
48951;SDS011;34758;42.148;24.744;2024-03-17T00:42:17;14.68;;;10.82;;
48951;SDS011;34758;42.148;24.744;2024-03-17T00:44:44;13.55;;;10.32;;
48951;SDS011;34758;42.148;24.744;2024-03-17T00:47:10;14.60;;;9.98;;
48951;SDS011;34758;42.148;24.744;2024-03-17T00:49:38;16.17;;;10.32;;
48951;SDS011;34758;42.148;24.744;2024-03-17T00:52:04;14.70;;;10.15;;
48951;SDS011;34758;42.148;24.744;2024-03-17T00:54:31;15.95;;;10.48;;
48951;SDS011;34758;42.148;24.744;2024-03-17T00:57:00;13.45;;;9.55;;
48951;SDS011;34758;42.148;24.744;2024-03-17T00:59:28;12.45;;;9.70;;
48951;SDS011;34758;42.148;24.744;2024-03-17T01:01:54;10.85;;;9.20;;
48951;SDS011;34758;42.148;24.744;2024-03-17T01:04:22;13.68;;;10.50;;
48951;SDS011;34758;42.148;24.744;2024-03-17T01:06:48;13.75;;;9.68;;
48951;SDS011;34758;42.148;24.744;2024-03-17T01:09:15;12.88;;;10.23;;
48951;SDS011;34758;42.148;24.744;2024-03-17T01:11:41;13.48;;;10.55;;
48951;SDS011;34758;42.148;24.744;2024-03-17T01:14:10;15.73;;;10.35;;
48951;SDS011;34758;42.148;24.744;2024-03-17T01:16:36;15.15;;;10.82;;
48951;SDS011;34758;42.148;24.744;2024-03-17T01:19:03;14.43;;;11.02;;
48951;SDS011;34758;42.148;24.744;2024-03-17T01:21:29;16.48;;;10.90;;
48951;SDS011;34758;42.148;24.744;2024-03-17T01:23:57;17.42;;;11.50;;
48951;SDS011;34758;42.148;24.744;2024-03-17T01:26:23;16.35;;;11.85;;
48951;SDS011;34758;42.148;24.744;2024-03-17T01:28:50;17.63;;;12.65;;
48951;SDS011;34758;42.148;24.744;2024-03-17T01:31:20;16.77;;;12.25;;
48951;SDS011;34758;42.148;24.744;2024-03-17T01:33:47;20.42;;;13.30;;
48951;SDS011;34758;42.148;24.744;2024-03-17T01:36:13;18.40;;;12.98;;
48951;SDS011;34758;42.148;24.744;2024-03-17T01:38:41;16.73;;;12.18;;
48951;SDS011;34758;42.148;24.744;2024-03-17T01:41:07;17.48;;;12.40;;
48951;SDS011;34758;42.148;24.744;2024-03-17T01:43:35;20.63;;;13.23;;
48951;SDS011;34758;42.148;24.744;2024-03-17T01:46:00;18.98;;;13.05;;
48951;SDS011;34758;42.148;24.744;2024-03-17T01:48:30;22.95;;;13.05;;
48951;SDS011;34758;42.148;24.744;2024-03-17T01:50:56;17.45;;;12.82;;
48951;SDS011;34758;42.148;24.744;2024-03-17T01:53:23;20.27;;;12.82;;
48951;SDS011;34758;42.148;24.744;2024-03-17T01:55:51;16.25;;;12.35;;
48951;SDS011;34758;42.148;24.744;2024-03-17T01:58:20;17.23;;;12.85;;
48951;SDS011;34758;42.148;24.744;2024-03-17T02:00:46;16.15;;;11.73;;
48951;SDS011;34758;42.148;24.744;2024-03-17T02:03:13;17.13;;;12.48;;
48951;SDS011;34758;42.148;24.744;2024-03-17T02:05:40;14.70;;;11.77;;
48951;SDS011;34758;42.148;24.744;2024-03-17T02:08:09;16.30;;;12.38;;
48951;SDS011;34758;42.148;24.744;2024-03-17T02:10:36;18.15;;;12.27;;
48951;SDS011;34758;42.148;24.744;2024-03-17T02:13:04;17.40;;;12.48;;
48951;SDS011;34758;42.148;24.744;2024-03-17T02:15:31;17.15;;;12.43;;
48951;SDS011;34758;42.148;24.744;2024-03-17T02:17:58;16.45;;;11.77;;
48951;SDS011;34758;42.148;24.744;2024-03-17T02:20:24;15.57;;;11.85;;
48951;SDS011;34758;42.148;24.744;2024-03-17T02:23:13;17.48;;;12.70;;
48951;SDS011;34758;42.148;24.744;2024-03-17T02:25:39;17.98;;;12.88;;
48951;SDS011;34758;42.148;24.744;2024-03-17T02:28:06;15.82;;;12.65;;
48951;SDS011;34758;42.148;24.744;2024-03-17T02:30:32;17.65;;;12.20;;
48951;SDS011;34758;42.148;24.744;2024-03-17T02:32:59;15.45;;;12.55;;
48951;SDS011;34758;42.148;24.744;2024-03-17T02:35:25;18.27;;;13.43;;
48951;SDS011;34758;42.148;24.744;2024-03-17T02:37:53;16.38;;;12.35;;
48951;SDS011;34758;42.148;24.744;2024-03-17T02:40:20;21.30;;;13.23;;
48951;SDS011;34758;42.148;24.744;2024-03-17T02:42:47;18.85;;;13.43;;
48951;SDS011;34758;42.148;24.744;2024-03-17T02:45:15;15.82;;;13.13;;
48951;SDS011;34758;42.148;24.744;2024-03-17T02:47:43;20.20;;;13.50;;
48951;SDS011;34758;42.148;24.744;2024-03-17T02:50:10;19.92;;;14.30;;
48951;SDS011;34758;42.148;24.744;2024-03-17T02:52:37;17.02;;;13.15;;
48951;SDS011;34758;42.148;24.744;2024-03-17T02:55:06;17.95;;;14.02;;
48951;SDS011;34758;42.148;24.744;2024-03-17T02:57:35;16.15;;;12.50;;
48951;SDS011;34758;42.148;24.744;2024-03-17T03:00:02;16.60;;;13.75;;
48951;SDS011;34758;42.148;24.744;2024-03-17T03:02:30;17.02;;;12.88;;
48951;SDS011;34758;42.148;24.744;2024-03-17T03:04:57;19.42;;;14.02;;
48951;SDS011;34758;42.148;24.744;2024-03-17T03:07:25;21.85;;;14.65;;
48951;SDS011;34758;42.148;24.744;2024-03-17T03:09:52;19.35;;;14.38;;
48951;SDS011;34758;42.148;24.744;2024-03-17T03:12:19;23.23;;;14.68;;
48951;SDS011;34758;42.148;24.744;2024-03-17T03:14:47;17.85;;;13.57;;
48951;SDS011;34758;42.148;24.744;2024-03-17T03:17:15;21.95;;;15.05;;
48951;SDS011;34758;42.148;24.744;2024-03-17T03:19:41;23.23;;;15.77;;
48951;SDS011;34758;42.148;24.744;2024-03-17T03:22:09;22.40;;;17.20;;
48951;SDS011;34758;42.148;24.744;2024-03-17T03:24:37;23.75;;;16.77;;
48951;SDS011;34758;42.148;24.744;2024-03-17T03:27:04;22.27;;;17.25;;
48951;SDS011;34758;42.148;24.744;2024-03-17T03:29:31;23.95;;;17.27;;
48951;SDS011;34758;42.148;24.744;2024-03-17T03:32:02;24.30;;;16.92;;
48951;SDS011;34758;42.148;24.744;2024-03-17T03:34:29;23.75;;;18.00;;
48951;SDS011;34758;42.148;24.744;2024-03-17T03:36:55;21.20;;;16.70;;
48951;SDS011;34758;42.148;24.744;2024-03-17T03:39:22;24.38;;;16.73;;
48951;SDS011;34758;42.148;24.744;2024-03-17T03:41:51;24.63;;;17.38;;
48951;SDS011;34758;42.148;24.744;2024-03-17T03:44:21;24.35;;;17.70;;
48951;SDS011;34758;42.148;24.744;2024-03-17T03:46:48;23.75;;;18.05;;
48951;SDS011;34758;42.148;24.744;2024-03-17T03:49:16;23.05;;;17.60;;
48951;SDS011;34758;42.148;24.744;2024-03-17T03:51:44;22.02;;;18.13;;
48951;SDS011;34758;42.148;24.744;2024-03-17T03:54:11;25.05;;;17.92;;
48951;SDS011;34758;42.148;24.744;2024-03-17T03:56:38;23.75;;;17.85;;
48951;SDS011;34758;42.148;24.744;2024-03-17T03:59:05;29.20;;;18.25;;
48951;SDS011;34758;42.148;24.744;2024-03-17T04:01:33;23.00;;;17.55;;
48951;SDS011;34758;42.148;24.744;2024-03-17T04:03:59;25.95;;;17.55;;
48951;SDS011;34758;42.148;24.744;2024-03-17T04:06:31;22.73;;;16.98;;
48951;SDS011;34758;42.148;24.744;2024-03-17T04:08:57;23.80;;;17.65;;
48951;SDS011;34758;42.148;24.744;2024-03-17T04:11:24;24.98;;;17.20;;
48951;SDS011;34758;42.148;24.744;2024-03-17T04:13:52;23.02;;;17.27;;
48951;SDS011;34758;42.148;24.744;2024-03-17T04:16:21;22.10;;;16.77;;
48951;SDS011;34758;42.148;24.744;2024-03-17T04:18:49;23.10;;;17.30;;
48951;SDS011;34758;42.148;24.744;2024-03-17T04:21:16;23.50;;;17.42;;
48951;SDS011;34758;42.148;24.744;2024-03-17T04:23:44;27.35;;;19.25;;
48951;SDS011;34758;42.148;24.744;2024-03-17T04:26:12;24.80;;;18.75;;
48951;SDS011;34758;42.148;24.744;2024-03-17T04:28:40;24.23;;;18.15;;
48951;SDS011;34758;42.148;24.744;2024-03-17T04:31:07;28.33;;;19.63;;
48951;SDS011;34758;42.148;24.744;2024-03-17T04:33:36;24.83;;;18.52;;
48951;SDS011;34758;42.148;24.744;2024-03-17T04:36:04;24.27;;;17.17;;
48951;SDS011;34758;42.148;24.744;2024-03-17T04:38:31;24.63;;;18.13;;
48951;SDS011;34758;42.148;24.744;2024-03-17T04:41:00;26.60;;;17.95;;
48951;SDS011;34758;42.148;24.744;2024-03-17T04:43:33;21.85;;;17.95;;
48951;SDS011;34758;42.148;24.744;2024-03-17T04:46:01;30.48;;;19.50;;
48951;SDS011;34758;42.148;24.744;2024-03-17T04:48:30;28.98;;;21.15;;
48951;SDS011;34758;42.148;24.744;2024-03-17T04:50:58;29.13;;;20.48;;
48951;SDS011;34758;42.148;24.744;2024-03-17T04:53:27;26.73;;;18.25;;
48951;SDS011;34758;42.148;24.744;2024-03-17T04:55:58;28.38;;;19.67;;
48951;SDS011;34758;42.148;24.744;2024-03-17T04:58:30;28.75;;;20.92;;
48951;SDS011;34758;42.148;24.744;2024-03-17T05:01:02;25.48;;;19.05;;
48951;SDS011;34758;42.148;24.744;2024-03-17T05:03:32;26.75;;;19.55;;
48951;SDS011;34758;42.148;24.744;2024-03-17T05:05:59;26.10;;;18.85;;
48951;SDS011;34758;42.148;24.744;2024-03-17T05:08:29;27.88;;;19.35;;
48951;SDS011;34758;42.148;24.744;2024-03-17T05:10:58;29.45;;;18.98;;
48951;SDS011;34758;42.148;24.744;2024-03-17T05:13:27;26.75;;;18.77;;
48951;SDS011;34758;42.148;24.744;2024-03-17T05:15:54;26.27;;;19.20;;
48951;SDS011;34758;42.148;24.744;2024-03-17T05:18:22;27.48;;;19.25;;
48951;SDS011;34758;42.148;24.744;2024-03-17T05:20:57;26.45;;;18.55;;
48951;SDS011;34758;42.148;24.744;2024-03-17T05:23:26;28.30;;;19.00;;
48951;SDS011;34758;42.148;24.744;2024-03-17T05:25:54;25.27;;;20.05;;
48951;SDS011;34758;42.148;24.744;2024-03-17T05:28:21;28.08;;;20.45;;
48951;SDS011;34758;42.148;24.744;2024-03-17T05:30:50;28.00;;;18.70;;
48951;SDS011;34758;42.148;24.744;2024-03-17T05:33:18;28.23;;;19.88;;
48951;SDS011;34758;42.148;24.744;2024-03-17T05:35:49;27.02;;;19.67;;
48951;SDS011;34758;42.148;24.744;2024-03-17T05:38:19;30.85;;;20.98;;
48951;SDS011;34758;42.148;24.744;2024-03-17T05:40:53;35.13;;;23.67;;
48951;SDS011;34758;42.148;24.744;2024-03-17T05:43:24;30.50;;;21.27;;
48951;SDS011;34758;42.148;24.744;2024-03-17T05:45:53;31.52;;;21.65;;
48951;SDS011;34758;42.148;24.744;2024-03-17T05:48:20;39.15;;;25.20;;
48951;SDS011;34758;42.148;24.744;2024-03-17T05:50:47;31.95;;;21.52;;
48951;SDS011;34758;42.148;24.744;2024-03-17T05:53:15;40.78;;;26.98;;
48951;SDS011;34758;42.148;24.744;2024-03-17T05:55:44;41.50;;;26.95;;
48951;SDS011;34758;42.148;24.744;2024-03-17T05:58:11;34.67;;;25.40;;
48951;SDS011;34758;42.148;24.744;2024-03-17T06:00:39;29.00;;;21.48;;
48951;SDS011;34758;42.148;24.744;2024-03-17T06:03:08;30.67;;;20.33;;
48951;SDS011;34758;42.148;24.744;2024-03-17T06:05:35;29.50;;;21.00;;
48951;SDS011;34758;42.148;24.744;2024-03-17T06:08:04;27.30;;;19.80;;
48951;SDS011;34758;42.148;24.744;2024-03-17T06:10:34;26.92;;;17.88;;
48951;SDS011;34758;42.148;24.744;2024-03-17T06:13:02;26.30;;;18.55;;
48951;SDS011;34758;42.148;24.744;2024-03-17T06:15:29;27.63;;;19.40;;
48951;SDS011;34758;42.148;24.744;2024-03-17T06:17:57;27.10;;;18.75;;
48951;SDS011;34758;42.148;24.744;2024-03-17T06:20:28;21.30;;;16.25;;
48951;SDS011;34758;42.148;24.744;2024-03-17T06:22:57;25.45;;;16.30;;
48951;SDS011;34758;42.148;24.744;2024-03-17T06:25:24;22.52;;;15.50;;
48951;SDS011;34758;42.148;24.744;2024-03-17T06:27:51;25.30;;;16.60;;
48951;SDS011;34758;42.148;24.744;2024-03-17T06:30:19;28.77;;;17.05;;
48951;SDS011;34758;42.148;24.744;2024-03-17T06:32:46;22.42;;;16.48;;
48951;SDS011;34758;42.148;24.744;2024-03-17T06:35:13;26.83;;;17.92;;
48951;SDS011;34758;42.148;24.744;2024-03-17T06:37:42;24.77;;;17.13;;
48951;SDS011;34758;42.148;24.744;2024-03-17T06:40:10;22.88;;;16.90;;
48951;SDS011;34758;42.148;24.744;2024-03-17T06:42:39;24.15;;;16.73;;
48951;SDS011;34758;42.148;24.744;2024-03-17T06:45:07;21.35;;;15.13;;
48951;SDS011;34758;42.148;24.744;2024-03-17T06:47:35;21.38;;;16.30;;
48951;SDS011;34758;42.148;24.744;2024-03-17T06:50:02;22.27;;;16.73;;
48951;SDS011;34758;42.148;24.744;2024-03-17T06:52:30;23.70;;;17.92;;
48951;SDS011;34758;42.148;24.744;2024-03-17T06:55:00;21.42;;;15.57;;
48951;SDS011;34758;42.148;24.744;2024-03-17T06:57:27;22.25;;;15.90;;
48951;SDS011;34758;42.148;24.744;2024-03-17T06:59:54;22.38;;;16.70;;
48951;SDS011;34758;42.148;24.744;2024-03-17T07:02:22;28.83;;;17.85;;
48951;SDS011;34758;42.148;24.744;2024-03-17T07:04:49;22.58;;;17.63;;
48951;SDS011;34758;42.148;24.744;2024-03-17T07:07:17;21.33;;;16.98;;
48951;SDS011;34758;42.148;24.744;2024-03-17T07:09:46;23.95;;;17.05;;
48951;SDS011;34758;42.148;24.744;2024-03-17T07:12:15;24.50;;;17.52;;
48951;SDS011;34758;42.148;24.744;2024-03-17T07:14:42;21.65;;;16.73;;
48951;SDS011;34758;42.148;24.744;2024-03-17T07:17:09;23.40;;;17.55;;
48951;SDS011;34758;42.148;24.744;2024-03-17T07:19:36;23.20;;;17.02;;
48951;SDS011;34758;42.148;24.744;2024-03-17T07:22:03;22.02;;;16.55;;
48951;SDS011;34758;42.148;24.744;2024-03-17T07:24:33;20.02;;;16.27;;
48951;SDS011;34758;42.148;24.744;2024-03-17T07:27:00;21.95;;;17.85;;
48951;SDS011;34758;42.148;24.744;2024-03-17T07:29:30;22.60;;;17.88;;
48951;SDS011;34758;42.148;24.744;2024-03-17T07:31:58;23.77;;;16.67;;
48951;SDS011;34758;42.148;24.744;2024-03-17T07:34:25;22.58;;;16.92;;
48951;SDS011;34758;42.148;24.744;2024-03-17T07:36:52;19.35;;;16.38;;
48951;SDS011;34758;42.148;24.744;2024-03-17T07:39:19;21.10;;;16.25;;
48951;SDS011;34758;42.148;24.744;2024-03-17T07:41:46;20.85;;;15.80;;
48951;SDS011;34758;42.148;24.744;2024-03-17T07:44:13;19.95;;;14.13;;
48951;SDS011;34758;42.148;24.744;2024-03-17T07:46:41;19.25;;;14.38;;
48951;SDS011;34758;42.148;24.744;2024-03-17T07:49:08;21.73;;;16.80;;
48951;SDS011;34758;42.148;24.744;2024-03-17T07:51:37;17.10;;;14.73;;
48951;SDS011;34758;42.148;24.744;2024-03-17T07:54:05;18.52;;;14.07;;
48951;SDS011;34758;42.148;24.744;2024-03-17T07:56:32;16.83;;;13.65;;
48951;SDS011;34758;42.148;24.744;2024-03-17T07:59:02;17.90;;;13.40;;
48951;SDS011;34758;42.148;24.744;2024-03-17T08:01:37;19.67;;;14.63;;
48951;SDS011;34758;42.148;24.744;2024-03-17T08:04:05;20.40;;;15.63;;
48951;SDS011;34758;42.148;24.744;2024-03-17T08:06:32;18.42;;;15.13;;
48951;SDS011;34758;42.148;24.744;2024-03-17T08:09:01;21.23;;;15.30;;
48951;SDS011;34758;42.148;24.744;2024-03-17T08:11:28;17.30;;;14.25;;
48951;SDS011;34758;42.148;24.744;2024-03-17T08:13:56;20.00;;;15.32;;
48951;SDS011;34758;42.148;24.744;2024-03-17T08:16:23;18.58;;;15.45;;
48951;SDS011;34758;42.148;24.744;2024-03-17T08:18:50;19.92;;;16.17;;
48951;SDS011;34758;42.148;24.744;2024-03-17T08:21:19;21.75;;;16.80;;
48951;SDS011;34758;42.148;24.744;2024-03-17T08:23:46;20.40;;;15.88;;
48951;SDS011;34758;42.148;24.744;2024-03-17T08:26:13;22.20;;;16.67;;
48951;SDS011;34758;42.148;24.744;2024-03-17T08:28:40;23.48;;;18.05;;
48951;SDS011;34758;42.148;24.744;2024-03-17T08:31:07;20.63;;;16.35;;
48951;SDS011;34758;42.148;24.744;2024-03-17T08:33:35;17.42;;;14.45;;
48951;SDS011;34758;42.148;24.744;2024-03-17T08:36:03;19.27;;;15.48;;
48951;SDS011;34758;42.148;24.744;2024-03-17T08:38:32;16.85;;;13.88;;
48951;SDS011;34758;42.148;24.744;2024-03-17T08:41:01;16.83;;;13.75;;
48951;SDS011;34758;42.148;24.744;2024-03-17T08:43:29;21.13;;;16.20;;
48951;SDS011;34758;42.148;24.744;2024-03-17T08:45:57;21.55;;;15.77;;
48951;SDS011;34758;42.148;24.744;2024-03-17T08:48:26;16.92;;;15.13;;
48951;SDS011;34758;42.148;24.744;2024-03-17T08:50:54;17.75;;;14.75;;
48951;SDS011;34758;42.148;24.744;2024-03-17T08:53:24;21.75;;;14.68;;
48951;SDS011;34758;42.148;24.744;2024-03-17T08:55:53;18.80;;;15.82;;
48951;SDS011;34758;42.148;24.744;2024-03-17T08:58:20;20.00;;;16.13;;
48951;SDS011;34758;42.148;24.744;2024-03-17T09:00:47;19.58;;;15.30;;
48951;SDS011;34758;42.148;24.744;2024-03-17T09:03:14;18.95;;;15.18;;
48951;SDS011;34758;42.148;24.744;2024-03-17T09:05:42;17.92;;;14.88;;
48951;SDS011;34758;42.148;24.744;2024-03-17T09:08:14;21.45;;;18.10;;
48951;SDS011;34758;42.148;24.744;2024-03-17T09:10:42;22.88;;;17.88;;
48951;SDS011;34758;42.148;24.744;2024-03-17T09:13:12;19.92;;;16.45;;
48951;SDS011;34758;42.148;24.744;2024-03-17T09:15:40;19.05;;;16.48;;
48951;SDS011;34758;42.148;24.744;2024-03-17T09:18:07;18.27;;;14.88;;
48951;SDS011;34758;42.148;24.744;2024-03-17T09:20:34;18.10;;;15.27;;
48951;SDS011;34758;42.148;24.744;2024-03-17T09:23:01;22.52;;;17.75;;
48951;SDS011;34758;42.148;24.744;2024-03-17T09:25:29;19.58;;;16.42;;
48951;SDS011;34758;42.148;24.744;2024-03-17T09:27:56;23.95;;;18.52;;
48951;SDS011;34758;42.148;24.744;2024-03-17T09:30:25;26.70;;;19.02;;
48951;SDS011;34758;42.148;24.744;2024-03-17T09:32:52;21.63;;;17.17;;
48951;SDS011;34758;42.148;24.744;2024-03-17T09:35:20;24.75;;;20.25;;
48951;SDS011;34758;42.148;24.744;2024-03-17T09:37:47;20.17;;;16.65;;
48951;SDS011;34758;42.148;24.744;2024-03-17T09:40:15;22.63;;;18.25;;
48951;SDS011;34758;42.148;24.744;2024-03-17T09:42:42;20.80;;;16.35;;
48951;SDS011;34758;42.148;24.744;2024-03-17T09:45:10;21.73;;;15.65;;
48951;SDS011;34758;42.148;24.744;2024-03-17T09:47:39;27.95;;;20.52;;
48951;SDS011;34758;42.148;24.744;2024-03-17T09:50:12;24.98;;;17.45;;
48951;SDS011;34758;42.148;24.744;2024-03-17T09:52:40;20.83;;;17.02;;
48951;SDS011;34758;42.148;24.744;2024-03-17T09:55:15;22.25;;;19.77;;
48951;SDS011;34758;42.148;24.744;2024-03-17T09:57:43;24.02;;;19.45;;
48951;SDS011;34758;42.148;24.744;2024-03-17T10:00:13;20.52;;;17.65;;
48951;SDS011;34758;42.148;24.744;2024-03-17T10:02:43;18.10;;;14.32;;
48951;SDS011;34758;42.148;24.744;2024-03-17T10:05:20;19.65;;;14.88;;
48951;SDS011;34758;42.148;24.744;2024-03-17T10:07:47;20.08;;;15.00;;
48951;SDS011;34758;42.148;24.744;2024-03-17T10:10:15;18.80;;;16.05;;
48951;SDS011;34758;42.148;24.744;2024-03-17T10:12:43;19.23;;;15.93;;
48951;SDS011;34758;42.148;24.744;2024-03-17T10:15:11;22.50;;;18.83;;
48951;SDS011;34758;42.148;24.744;2024-03-17T10:17:39;18.10;;;16.08;;
48951;SDS011;34758;42.148;24.744;2024-03-17T10:20:24;17.92;;;15.20;;
48951;SDS011;34758;42.148;24.744;2024-03-17T10:23:01;22.27;;;17.65;;
48951;SDS011;34758;42.148;24.744;2024-03-17T10:25:30;19.50;;;14.88;;
48951;SDS011;34758;42.148;24.744;2024-03-17T10:27:58;16.50;;;13.65;;
48951;SDS011;34758;42.148;24.744;2024-03-17T10:30:26;17.00;;;13.50;;
48951;SDS011;34758;42.148;24.744;2024-03-17T10:32:55;18.35;;;15.23;;
48951;SDS011;34758;42.148;24.744;2024-03-17T10:35:33;20.05;;;17.15;;
48951;SDS011;34758;42.148;24.744;2024-03-17T10:38:04;18.38;;;15.55;;
48951;SDS011;34758;42.148;24.744;2024-03-17T10:40:32;19.67;;;14.85;;
48951;SDS011;34758;42.148;24.744;2024-03-17T10:43:04;14.52;;;12.70;;
48951;SDS011;34758;42.148;24.744;2024-03-17T10:45:32;14.70;;;13.07;;
48951;SDS011;34758;42.148;24.744;2024-03-17T10:48:01;14.60;;;11.95;;
48951;SDS011;34758;42.148;24.744;2024-03-17T10:50:29;13.65;;;11.10;;
48951;SDS011;34758;42.148;24.744;2024-03-17T10:53:01;19.13;;;15.52;;
48951;SDS011;34758;42.148;24.744;2024-03-17T10:55:43;16.05;;;13.90;;
48951;SDS011;34758;42.148;24.744;2024-03-17T10:58:19;19.20;;;15.88;;
48951;SDS011;34758;42.148;24.744;2024-03-17T11:00:50;20.55;;;13.63;;
48951;SDS011;34758;42.148;24.744;2024-03-17T11:03:18;16.55;;;13.98;;
48951;SDS011;34758;42.148;24.744;2024-03-17T11:05:47;19.92;;;14.80;;
48951;SDS011;34758;42.148;24.744;2024-03-17T11:08:16;17.92;;;14.15;;
48951;SDS011;34758;42.148;24.744;2024-03-17T11:10:48;13.07;;;11.63;;
48951;SDS011;34758;42.148;24.744;2024-03-17T11:13:23;12.25;;;9.90;;
48951;SDS011;34758;42.148;24.744;2024-03-17T11:15:52;16.33;;;10.63;;
48951;SDS011;34758;42.148;24.744;2024-03-17T11:18:39;16.48;;;12.13;;
48951;SDS011;34758;42.148;24.744;2024-03-17T11:21:21;14.48;;;12.57;;
48951;SDS011;34758;42.148;24.744;2024-03-17T11:24:01;19.08;;;15.88;;
48951;SDS011;34758;42.148;24.744;2024-03-17T11:26:30;16.05;;;13.13;;
48951;SDS011;34758;42.148;24.744;2024-03-17T11:28:59;14.13;;;12.30;;
48951;SDS011;34758;42.148;24.744;2024-03-17T11:31:42;15.23;;;12.65;;
48951;SDS011;34758;42.148;24.744;2024-03-17T11:34:31;12.30;;;10.25;;
48951;SDS011;34758;42.148;24.744;2024-03-17T11:36:59;15.43;;;11.07;;
48951;SDS011;34758;42.148;24.744;2024-03-17T11:39:52;14.05;;;11.23;;
48951;SDS011;34758;42.148;24.744;2024-03-17T11:42:22;12.10;;;10.77;;
48951;SDS011;34758;42.148;24.744;2024-03-17T11:44:55;12.18;;;10.10;;
48951;SDS011;34758;42.148;24.744;2024-03-17T11:47:35;12.68;;;10.23;;
48951;SDS011;34758;42.148;24.744;2024-03-17T11:50:03;8.80;;;6.80;;
48951;SDS011;34758;42.148;24.744;2024-03-17T11:52:31;7.70;;;6.90;;
48951;SDS011;34758;42.148;24.744;2024-03-17T11:55:02;6.88;;;6.15;;
48951;SDS011;34758;42.148;24.744;2024-03-17T11:57:31;6.80;;;5.75;;
48951;SDS011;34758;42.148;24.744;2024-03-17T11:59:59;6.43;;;5.78;;
48951;SDS011;34758;42.148;24.744;2024-03-17T12:02:27;10.68;;;9.65;;
48951;SDS011;34758;42.148;24.744;2024-03-17T12:04:57;9.60;;;7.43;;
48951;SDS011;34758;42.148;24.744;2024-03-17T12:07:25;9.02;;;8.05;;
48951;SDS011;34758;42.148;24.744;2024-03-17T12:09:53;6.35;;;5.43;;
48951;SDS011;34758;42.148;24.744;2024-03-17T12:12:23;10.00;;;7.45;;
48951;SDS011;34758;42.148;24.744;2024-03-17T12:15:00;8.05;;;7.20;;
48951;SDS011;34758;42.148;24.744;2024-03-17T12:17:34;7.18;;;6.13;;
48951;SDS011;34758;42.148;24.744;2024-03-17T12:20:00;6.82;;;5.90;;
48951;SDS011;34758;42.148;24.744;2024-03-17T12:22:29;6.80;;;5.78;;
48951;SDS011;34758;42.148;24.744;2024-03-17T12:25:02;5.28;;;4.72;;
48951;SDS011;34758;42.148;24.744;2024-03-17T12:27:30;6.28;;;5.57;;
48951;SDS011;34758;42.148;24.744;2024-03-17T12:29:57;5.60;;;5.10;;
48951;SDS011;34758;42.148;24.744;2024-03-17T12:32:26;7.88;;;5.80;;
48951;SDS011;34758;42.148;24.744;2024-03-17T12:34:52;4.75;;;3.95;;
48951;SDS011;34758;42.148;24.744;2024-03-17T12:37:21;4.18;;;3.67;;
48951;SDS011;34758;42.148;24.744;2024-03-17T12:39:48;4.25;;;3.85;;
48951;SDS011;34758;42.148;24.744;2024-03-17T12:42:16;6.50;;;5.90;;
48951;SDS011;34758;42.148;24.744;2024-03-17T12:44:48;9.98;;;7.13;;
48951;SDS011;34758;42.148;24.744;2024-03-17T12:47:16;6.40;;;4.87;;
48951;SDS011;34758;42.148;24.744;2024-03-17T12:49:46;5.88;;;4.35;;
48951;SDS011;34758;42.148;24.744;2024-03-17T12:52:18;3.75;;;3.45;;
48951;SDS011;34758;42.148;24.744;2024-03-17T12:54:45;19.77;;;16.30;;
48951;SDS011;34758;42.148;24.744;2024-03-17T12:57:43;5.32;;;4.82;;
48951;SDS011;34758;42.148;24.744;2024-03-17T13:00:29;15.10;;;13.60;;
48951;SDS011;34758;42.148;24.744;2024-03-17T13:02:59;6.95;;;4.82;;
48951;SDS011;34758;42.148;24.744;2024-03-17T13:05:27;5.95;;;4.78;;
48951;SDS011;34758;42.148;24.744;2024-03-17T13:07:54;5.13;;;4.63;;
48951;SDS011;34758;42.148;24.744;2024-03-17T13:10:22;4.10;;;3.70;;
48951;SDS011;34758;42.148;24.744;2024-03-17T13:12:57;4.68;;;4.07;;
48951;SDS011;34758;42.148;24.744;2024-03-17T13:15:25;5.47;;;4.15;;
48951;SDS011;34758;42.148;24.744;2024-03-17T13:17:55;39.85;;;21.48;;
48951;SDS011;34758;42.148;24.744;2024-03-17T13:20:23;11.07;;;5.93;;
48951;SDS011;34758;42.148;24.744;2024-03-17T13:22:51;6.03;;;4.53;;
48951;SDS011;34758;42.148;24.744;2024-03-17T13:25:19;6.78;;;4.85;;
48951;SDS011;34758;42.148;24.744;2024-03-17T13:27:48;4.32;;;3.92;;
48951;SDS011;34758;42.148;24.744;2024-03-17T13:30:18;4.97;;;3.88;;
48951;SDS011;34758;42.148;24.744;2024-03-17T13:32:47;3.67;;;3.25;;
48951;SDS011;34758;42.148;24.744;2024-03-17T13:35:23;4.80;;;3.75;;
48951;SDS011;34758;42.148;24.744;2024-03-17T13:37:52;4.32;;;3.92;;
48951;SDS011;34758;42.148;24.744;2024-03-17T13:40:20;4.30;;;3.85;;
48951;SDS011;34758;42.148;24.744;2024-03-17T13:42:49;4.30;;;3.90;;
48951;SDS011;34758;42.148;24.744;2024-03-17T13:45:17;4.53;;;4.10;;
48951;SDS011;34758;42.148;24.744;2024-03-17T13:47:47;3.85;;;3.38;;
48951;SDS011;34758;42.148;24.744;2024-03-17T13:50:17;6.07;;;3.97;;
48951;SDS011;34758;42.148;24.744;2024-03-17T13:52:46;4.30;;;3.97;;
48951;SDS011;34758;42.148;24.744;2024-03-17T13:55:13;5.68;;;4.10;;
48951;SDS011;34758;42.148;24.744;2024-03-17T13:57:42;4.90;;;3.95;;
48951;SDS011;34758;42.148;24.744;2024-03-17T14:00:10;5.72;;;4.70;;
48951;SDS011;34758;42.148;24.744;2024-03-17T14:02:41;4.57;;;4.15;;
48951;SDS011;34758;42.148;24.744;2024-03-17T14:05:10;4.65;;;3.92;;
48951;SDS011;34758;42.148;24.744;2024-03-17T14:07:39;3.90;;;3.53;;
48951;SDS011;34758;42.148;24.744;2024-03-17T14:10:07;4.95;;;3.58;;
48951;SDS011;34758;42.148;24.744;2024-03-17T14:12:35;4.35;;;3.92;;
48951;SDS011;34758;42.148;24.744;2024-03-17T14:15:05;16.17;;;10.85;;
48951;SDS011;34758;42.148;24.744;2024-03-17T14:17:36;5.38;;;4.50;;
48951;SDS011;34758;42.148;24.744;2024-03-17T14:20:03;13.07;;;11.80;;
48951;SDS011;34758;42.148;24.744;2024-03-17T14:22:31;5.20;;;4.70;;